createdAt,value
2023-05-22T00:02:06.972Z,61.32
2023-05-22T00:04:34.025Z,61.58
2023-05-22T00:07:00.680Z,61.68
2023-05-22T00:09:27.453Z,61.84
2023-05-22T00:11:54.329Z,61.99
2023-05-22T00:14:21.025Z,62.12
2023-05-22T00:16:48.523Z,62.25
2023-05-22T00:19:16.730Z,62.42
2023-05-22T00:21:44.560Z,62.51
2023-05-22T00:24:11.335Z,62.66
2023-05-22T00:26:38.184Z,62.83
2023-05-22T00:29:06.077Z,62.90
2023-05-22T00:31:32.995Z,62.93
2023-05-22T00:33:59.933Z,63.04
2023-05-22T00:36:26.707Z,63.21
2023-05-22T00:38:53.298Z,63.32
2023-05-22T00:41:20.124Z,63.46
2023-05-22T00:43:47.759Z,63.57
2023-05-22T00:46:14.661Z,63.67
2023-05-22T00:48:41.390Z,63.83
2023-05-22T00:51:08.909Z,63.98
2023-05-22T00:53:37.192Z,64.10
2023-05-22T00:56:05.583Z,64.25
2023-05-22T00:58:32.626Z,64.24
2023-05-22T01:00:59.477Z,64.24
2023-05-22T01:03:27.282Z,64.20
2023-05-22T01:05:55.115Z,64.07
2023-05-22T01:08:23.065Z,63.95
2023-05-22T01:11:16.501Z,64.00
2023-05-22T01:13:59.416Z,64.03
2023-05-22T01:16:46.704Z,64.13
2023-05-22T01:20:01.116Z,64.22
2023-05-22T01:23:03.332Z,64.32
2023-05-22T01:25:58.210Z,64.48
2023-05-22T01:28:59.284Z,64.35
2023-05-22T01:31:27.844Z,64.40
2023-05-22T01:33:59.166Z,64.54
2023-05-22T01:36:35.154Z,64.84
2023-05-22T01:39:06.048Z,64.91
2023-05-22T01:41:34.203Z,64.79
2023-05-22T01:44:02.456Z,64.75
2023-05-22T01:46:30.332Z,64.68
2023-05-22T01:48:58.188Z,64.61
2023-05-22T01:51:56.026Z,64.67
2023-05-22T01:54:39.837Z,64.72
2023-05-22T01:57:57.553Z,64.83
2023-05-22T02:00:26.651Z,64.96
2023-05-22T02:03:08.156Z,64.91
2023-05-22T02:05:38.807Z,64.90
2023-05-22T02:08:07.032Z,64.95
2023-05-22T02:10:35.591Z,64.95
2023-05-22T02:13:02.612Z,65.02
2023-05-22T02:15:30.155Z,65.05
2023-05-22T02:18:01.808Z,65.15
2023-05-22T02:20:29.681Z,65.25
2023-05-22T02:22:57.665Z,65.37
2023-05-22T02:25:24.377Z,65.48
2023-05-22T02:27:51.075Z,65.57
2023-05-22T02:30:17.867Z,65.59
2023-05-22T02:32:46.473Z,65.59
2023-05-22T02:35:13.189Z,65.57
2023-05-22T02:37:39.873Z,65.62
2023-05-22T02:40:07.335Z,65.60
2023-05-22T02:42:34.946Z,65.33
2023-05-22T02:45:02.946Z,65.10
2023-05-22T02:47:29.849Z,65.20
2023-05-22T02:49:57.975Z,65.00
2023-05-22T02:52:25.195Z,64.87
2023-05-22T02:54:52.007Z,64.68
2023-05-22T02:57:19.074Z,64.58
2023-05-22T02:59:46.219Z,64.52
2023-05-22T03:02:15.443Z,64.51
2023-05-22T03:04:42.226Z,64.47
2023-05-22T03:07:08.945Z,64.49
2023-05-22T03:09:36.222Z,64.50
2023-05-22T03:12:03.190Z,64.54
2023-05-22T03:14:30.047Z,64.53
2023-05-22T03:16:58.867Z,64.51
2023-05-22T03:19:26.475Z,64.58
2023-05-22T03:21:53.502Z,64.57
2023-05-22T03:24:21.699Z,64.49
2023-05-22T03:26:48.346Z,64.46
2023-05-22T03:29:19.534Z,64.51
2023-05-22T03:31:46.573Z,64.57
2023-05-22T03:34:14.495Z,64.63
2023-05-22T03:36:42.415Z,64.72
2023-05-22T03:39:09.232Z,64.76
2023-05-22T03:41:39.600Z,64.85
2023-05-22T03:44:07.135Z,64.95
2023-05-22T03:46:33.892Z,64.99
2023-05-22T03:49:00.608Z,65.01
2023-05-22T03:51:27.472Z,65.18
2023-05-22T03:53:54.224Z,65.21
2023-05-22T03:56:21.266Z,65.20
2023-05-22T03:58:50.239Z,65.24
2023-05-22T04:01:18.054Z,65.32
2023-05-22T04:03:44.839Z,65.34
2023-05-22T04:06:13.807Z,65.20
2023-05-22T04:08:40.734Z,65.21
2023-05-22T04:11:08.348Z,65.27
2023-05-22T04:13:35.148Z,65.30
2023-05-22T04:16:02.135Z,65.31
2023-05-22T04:18:29.101Z,65.33
2023-05-22T04:20:57.592Z,65.31
2023-05-22T04:23:24.292Z,65.30
2023-05-22T04:25:51.854Z,65.30
2023-05-22T04:28:22.469Z,65.17
2023-05-22T04:30:49.660Z,65.13
2023-05-22T04:33:18.182Z,65.04
2023-05-22T04:35:45.134Z,64.84
2023-05-22T04:38:11.957Z,64.68
2023-05-22T04:40:38.963Z,64.59
2023-05-22T04:43:06.236Z,64.50
2023-05-22T04:45:33.065Z,64.37
2023-05-22T04:48:02.870Z,64.25
2023-05-22T04:50:34.385Z,64.19
2023-05-22T04:53:04.469Z,63.98
2023-05-22T04:55:34.652Z,63.91
2023-05-22T04:58:01.533Z,63.82
2023-05-22T05:00:28.992Z,63.72
2023-05-22T05:02:58.126Z,63.60
2023-05-22T05:05:25.060Z,63.50
2023-05-22T05:07:53.322Z,63.50
2023-05-22T05:10:20.412Z,63.47
2023-05-22T05:12:47.231Z,63.37
2023-05-22T05:15:14.043Z,63.25
2023-05-22T05:17:41.183Z,63.20
2023-05-22T05:20:09.064Z,63.07
2023-05-22T05:22:36.006Z,63.04
2023-05-22T05:25:05.715Z,62.99
2023-05-22T05:27:33.290Z,62.92
2023-05-22T05:30:01.337Z,62.78
2023-05-22T05:32:40.893Z,62.57
2023-05-22T05:35:18.931Z,62.39
2023-05-22T05:37:49.442Z,62.23
2023-05-22T05:40:16.884Z,62.08
2023-05-22T05:42:48.239Z,61.88
2023-05-22T05:45:17.145Z,61.65
2023-05-22T05:47:43.819Z,61.53
2023-05-22T05:50:11.202Z,61.40
2023-05-22T05:52:38.604Z,61.16
2023-05-22T05:55:10.875Z,60.88
2023-05-22T05:57:37.761Z,60.62
2023-05-22T06:00:11.261Z,59.68
2023-05-22T06:02:41.907Z,56.52
2023-05-22T06:05:19.460Z,52.71
2023-05-22T06:07:48.266Z,49.36
2023-05-22T06:10:47.683Z,47.55
2023-05-22T06:13:34.546Z,44.64
2023-05-22T06:16:04.273Z,42.51
2023-05-22T06:18:33.676Z,40.81
2023-05-22T06:21:00.557Z,38.99
2023-05-22T06:23:27.286Z,38.16
2023-05-22T06:25:55.478Z,36.66
2023-05-22T06:28:22.278Z,35.67
2023-05-22T06:30:49.423Z,34.78
2023-05-22T06:33:17.429Z,33.77
2023-05-22T06:35:44.641Z,32.37
2023-05-22T06:38:11.697Z,31.04
2023-05-22T06:40:38.735Z,30.23
2023-05-22T06:43:16.518Z,29.60
2023-05-22T06:45:51.225Z,29.59
2023-05-22T06:48:23.965Z,29.29
2023-05-22T06:51:12.711Z,28.43
2023-05-22T06:53:40.770Z,27.77
2023-05-22T06:56:12.572Z,27.89
2023-05-22T06:58:59.626Z,27.18
2023-05-22T07:01:38.116Z,27.23
2023-05-22T07:04:09.870Z,27.06
2023-05-22T07:06:53.146Z,27.03
2023-05-22T07:09:20.316Z,26.71
2023-05-22T07:11:48.043Z,26.12
2023-05-22T07:14:15.937Z,26.07
2023-05-22T07:16:43.090Z,25.82
2023-05-22T07:19:10.459Z,25.59
2023-05-22T07:21:37.988Z,25.16
2023-05-22T07:24:08.562Z,25.30
2023-05-22T07:26:38.359Z,24.69
2023-05-22T07:29:08.892Z,24.55
2023-05-22T07:31:37.083Z,24.58
2023-05-22T07:34:03.761Z,24.13
2023-05-22T07:36:31.996Z,23.78
2023-05-22T07:38:58.762Z,23.62
2023-05-22T07:41:27.437Z,23.50
2023-05-22T07:43:54.420Z,23.20
2023-05-22T07:46:25.353Z,22.94
2023-05-22T07:48:57.096Z,22.55
2023-05-22T07:51:23.791Z,22.46
2023-05-22T07:53:51.466Z,22.12
2023-05-22T07:56:18.150Z,22.48
2023-05-22T07:58:48.269Z,23.08
2023-05-22T08:01:17.187Z,22.71
2023-05-22T08:03:44.451Z,22.86
2023-05-22T08:06:12.947Z,22.50
2023-05-22T08:08:39.608Z,22.42
2023-05-22T08:11:06.653Z,21.53
2023-05-22T08:13:33.665Z,22.29
2023-05-22T08:16:01.459Z,22.02
2023-05-22T08:18:30.115Z,21.68
2023-05-22T08:20:57.659Z,21.51
2023-05-22T08:23:24.496Z,22.21
2023-05-22T08:25:51.147Z,22.34
2023-05-22T08:28:17.918Z,21.62
2023-05-22T08:30:44.632Z,22.65
2023-05-22T08:33:11.996Z,22.58
2023-05-22T08:35:39.347Z,23.06
2023-05-22T08:38:06.234Z,22.34
2023-05-22T08:40:41.280Z,21.42
2023-05-22T08:43:09.387Z,21.54
2023-05-22T08:45:36.264Z,22.60
2023-05-22T08:48:06.267Z,23.12
2023-05-22T08:50:36.998Z,23.36
2023-05-22T08:53:07.170Z,22.60
2023-05-22T08:55:34.981Z,22.65
2023-05-22T08:58:02.422Z,22.70
2023-05-22T09:00:29.745Z,22.43
2023-05-22T09:02:57.756Z,21.62
2023-05-22T09:05:26.945Z,22.16
2023-05-22T09:07:56.584Z,22.56
2023-05-22T09:10:25.771Z,22.40
2023-05-22T09:13:04.422Z,22.03
2023-05-22T09:15:32.576Z,21.43
2023-05-22T09:18:00.702Z,20.68
2023-05-22T09:20:27.514Z,20.69
2023-05-22T09:22:54.104Z,21.54
2023-05-22T09:25:22.054Z,22.01
2023-05-22T09:27:49.424Z,22.63
2023-05-22T09:30:19.935Z,23.21
2023-05-22T09:32:48.996Z,22.83
2023-05-22T09:35:16.639Z,22.55
2023-05-22T09:37:43.375Z,23.09
2023-05-22T09:40:16.457Z,23.05
2023-05-22T09:42:46.140Z,22.89
2023-05-22T09:45:13.467Z,22.71
2023-05-22T09:47:40.850Z,23.64
2023-05-22T09:50:10.396Z,24.48
2023-05-22T09:52:38.454Z,24.71
2023-05-22T09:55:07.415Z,25.19
2023-05-22T09:57:50.287Z,26.19
2023-05-22T10:00:19.921Z,26.98
2023-05-22T10:02:50.816Z,26.99
2023-05-22T10:05:22.976Z,26.85
2023-05-22T10:07:54.737Z,27.64
2023-05-22T10:10:24.982Z,28.38
2023-05-22T10:12:57.515Z,28.29
2023-05-22T10:15:24.801Z,28.59
2023-05-22T10:17:51.832Z,29.13
2023-05-22T10:20:20.025Z,30.01
2023-05-22T10:22:49.116Z,30.57
2023-05-22T10:25:18.545Z,30.53
2023-05-22T10:27:45.904Z,30.54
2023-05-22T10:30:40.312Z,30.61
2023-05-22T10:33:39.581Z,31.51
2023-05-22T10:36:21.138Z,31.76
2023-05-22T10:39:31.421Z,32.38
2023-05-22T10:41:58.411Z,33.08
2023-05-22T10:44:25.146Z,33.31
2023-05-22T10:46:52.150Z,33.02
2023-05-22T10:49:26.032Z,32.72
2023-05-22T10:51:57.099Z,32.52
2023-05-22T10:54:43.631Z,32.55
2023-05-22T10:57:16.241Z,33.07
2023-05-22T10:59:44.193Z,33.56
2023-05-22T11:02:31.423Z,34.20
2023-05-22T11:05:17.237Z,34.47
2023-05-22T11:07:44.048Z,34.98
2023-05-22T11:10:10.752Z,35.22
2023-05-22T11:12:37.493Z,35.06
2023-05-22T11:15:09.362Z,35.31
2023-05-22T11:17:39.147Z,35.63
2023-05-22T11:20:30.768Z,35.68
2023-05-22T11:23:01.498Z,35.56
2023-05-22T11:25:29.178Z,35.84
2023-05-22T11:27:56.471Z,36.26
2023-05-22T11:30:32.653Z,36.95
2023-05-22T11:33:00.838Z,36.84
2023-05-22T11:35:28.685Z,37.07
2023-05-22T11:37:56.311Z,37.17
2023-05-22T11:40:25.977Z,37.10
2023-05-22T11:42:54.136Z,37.14
2023-05-22T11:45:21.618Z,37.14
2023-05-22T11:47:49.097Z,37.24
2023-05-22T11:50:22.606Z,37.36
2023-05-22T11:52:50.071Z,37.29
2023-05-22T11:55:16.890Z,37.56
2023-05-22T11:57:44.238Z,37.65
2023-05-22T12:00:12.095Z,37.33
2023-05-22T12:02:44.704Z,37.42
2023-05-22T12:05:12.060Z,37.54
2023-05-22T12:07:39.138Z,37.80
2023-05-22T12:10:07.533Z,37.79
2023-05-22T12:12:34.485Z,37.49
2023-05-22T12:15:01.165Z,37.23
2023-05-22T12:17:28.721Z,37.38
2023-05-22T12:20:16.972Z,37.38
2023-05-22T12:22:47.791Z,37.19
2023-05-22T12:25:42.809Z,37.18
2023-05-22T12:28:09.486Z,37.04
2023-05-22T12:30:42.786Z,36.76
2023-05-22T12:33:14.660Z,36.48
2023-05-22T12:35:41.861Z,36.23
2023-05-22T12:38:09.440Z,36.20
2023-05-22T12:40:36.127Z,36.09
2023-05-22T12:43:02.871Z,36.27
2023-05-22T12:45:29.549Z,36.12
2023-05-22T12:47:56.269Z,35.48
2023-05-22T12:50:23.017Z,35.39
2023-05-22T12:52:51.709Z,34.43
2023-05-22T12:55:18.505Z,34.28
2023-05-22T12:57:45.290Z,34.62
2023-05-22T13:00:12.908Z,35.04
2023-05-22T13:02:39.706Z,35.19
2023-05-22T13:05:06.954Z,35.31
2023-05-22T13:07:33.711Z,35.59
2023-05-22T13:10:00.443Z,35.44
2023-05-22T13:12:31.520Z,35.72
2023-05-22T13:14:59.602Z,36.14
2023-05-22T13:17:27.824Z,35.92
2023-05-22T13:19:55.631Z,36.24
2023-05-22T13:22:23.110Z,36.64
2023-05-22T13:24:49.785Z,36.62
2023-05-22T13:27:18.577Z,36.64
2023-05-22T13:29:45.615Z,36.71
2023-05-22T13:32:13.881Z,36.71
2023-05-22T13:34:41.381Z,37.00
2023-05-22T13:37:09.134Z,37.72
2023-05-22T13:39:35.850Z,37.60
2023-05-22T13:42:02.623Z,37.34
2023-05-22T13:44:29.311Z,37.27
2023-05-22T13:46:56.185Z,36.88
2023-05-22T13:49:22.837Z,36.84
2023-05-22T13:51:49.491Z,36.68
2023-05-22T13:54:16.294Z,36.64
2023-05-22T13:56:42.952Z,36.39
2023-05-22T13:59:09.640Z,36.17
2023-05-22T14:01:36.495Z,35.22
2023-05-22T14:04:03.468Z,34.91
2023-05-22T14:06:30.760Z,34.12
2023-05-22T14:08:57.617Z,33.86
2023-05-22T14:11:24.470Z,33.72
2023-05-22T14:13:52.357Z,33.42
2023-05-22T14:16:19.306Z,33.54
2023-05-22T14:18:46.362Z,33.07
2023-05-22T14:21:13.216Z,33.42
2023-05-22T14:23:39.960Z,33.66
2023-05-22T14:26:06.616Z,33.81
2023-05-22T14:28:33.935Z,33.73
2023-05-22T14:31:00.714Z,32.54
2023-05-22T14:33:27.538Z,32.79
2023-05-22T14:35:54.240Z,32.82
2023-05-22T14:38:21.030Z,32.94
2023-05-22T14:40:47.743Z,32.21
2023-05-22T14:43:14.556Z,32.08
2023-05-22T14:45:41.342Z,31.77
2023-05-22T14:48:10.992Z,31.80
2023-05-22T14:50:37.989Z,31.90
2023-05-22T14:53:04.687Z,31.92
2023-05-22T14:55:31.857Z,32.48
2023-05-22T14:57:58.585Z,32.86
2023-05-22T15:00:26.376Z,32.79
2023-05-22T15:02:52.970Z,32.73
2023-05-22T15:05:31.793Z,32.59
2023-05-22T15:08:21.999Z,33.21
2023-05-22T15:10:56.269Z,32.89
2023-05-22T15:13:36.965Z,32.28
2023-05-22T15:16:07.131Z,32.52
2023-05-22T15:18:33.854Z,32.57
2023-05-22T15:21:01.109Z,32.44
2023-05-22T15:23:27.824Z,32.40
2023-05-22T15:25:55.139Z,32.56
2023-05-22T15:28:22.151Z,32.70
2023-05-22T15:30:48.896Z,33.13
2023-05-22T15:33:16.116Z,33.57
2023-05-22T15:35:46.519Z,33.46
2023-05-22T15:38:13.958Z,33.61
2023-05-22T15:40:41.173Z,33.67
2023-05-22T15:43:08.236Z,34.03
2023-05-22T15:45:38.577Z,34.44
2023-05-22T15:48:06.524Z,34.66
2023-05-22T15:50:34.470Z,35.30
2023-05-22T15:53:01.526Z,35.80
2023-05-22T15:55:28.685Z,36.15
2023-05-22T15:57:55.418Z,36.43
2023-05-22T16:00:22.276Z,36.71
2023-05-22T16:02:49.599Z,36.88
2023-05-22T16:05:16.482Z,37.15
2023-05-22T16:07:43.285Z,37.34
2023-05-22T16:10:10.974Z,37.17
2023-05-22T16:12:39.870Z,37.22
2023-05-22T16:15:07.786Z,37.33
2023-05-22T16:17:34.580Z,37.20
2023-05-22T16:20:01.408Z,37.31
2023-05-22T16:22:40.335Z,37.14
2023-05-22T16:25:16.878Z,37.12
2023-05-22T16:27:44.410Z,37.05
2023-05-22T16:30:12.457Z,36.88
2023-05-22T16:32:39.290Z,36.79
2023-05-22T16:35:06.474Z,36.80
2023-05-22T16:37:33.850Z,36.76
2023-05-22T16:40:00.604Z,36.72
2023-05-22T16:42:27.446Z,36.69
2023-05-22T16:44:54.207Z,36.71
2023-05-22T16:47:22.059Z,36.68
2023-05-22T16:49:50.314Z,36.70
2023-05-22T16:52:18.099Z,36.70
2023-05-22T16:54:44.886Z,37.13
2023-05-22T16:57:11.521Z,37.83
2023-05-22T16:59:38.290Z,38.14
2023-05-22T17:02:05.066Z,38.53
2023-05-22T17:04:31.774Z,39.07
2023-05-22T17:06:58.357Z,39.26
2023-05-22T17:09:25.074Z,39.25
2023-05-22T17:11:51.762Z,39.40
2023-05-22T17:14:21.519Z,39.60
2023-05-22T17:16:49.247Z,39.21
2023-05-22T17:19:17.814Z,38.72
2023-05-22T17:21:47.632Z,38.34
2023-05-22T17:24:14.862Z,38.59
2023-05-22T17:26:43.175Z,38.75
2023-05-22T17:29:11.233Z,38.56
2023-05-22T17:31:39.474Z,38.64
2023-05-22T17:34:06.612Z,38.71
2023-05-22T17:36:33.449Z,38.88
2023-05-22T17:39:00.173Z,38.77
2023-05-22T17:41:27.099Z,38.57
2023-05-22T17:44:34.462Z,38.38
2023-05-22T17:51:54.980Z,37.79
2023-05-22T17:54:21.764Z,38.00
2023-05-22T17:56:48.650Z,38.05
2023-05-22T17:59:15.256Z,38.24
2023-05-22T18:01:41.945Z,38.02
2023-05-22T18:04:08.742Z,38.41
2023-05-22T18:06:36.448Z,38.73
2023-05-22T18:09:04.538Z,38.84
2023-05-22T18:11:31.483Z,38.97
2023-05-22T18:13:58.117Z,39.30
2023-05-22T18:16:24.889Z,39.47
2023-05-22T18:18:51.722Z,39.71
2023-05-22T18:21:18.477Z,39.82
2023-05-22T18:23:45.144Z,39.88
2023-05-22T18:26:11.875Z,39.81
2023-05-22T18:28:38.594Z,40.00
2023-05-22T18:31:05.233Z,40.08
2023-05-22T18:33:33.453Z,40.18
2023-05-22T18:36:00.304Z,40.49
2023-05-22T18:38:27.550Z,40.79
2023-05-22T18:40:55.649Z,41.07
2023-05-22T18:43:28.216Z,41.22
2023-05-22T18:45:57.076Z,41.65
2023-05-22T18:48:28.327Z,41.80
2023-05-22T18:50:57.384Z,41.87
2023-05-22T18:53:25.426Z,42.03
2023-05-22T18:55:54.076Z,42.27
2023-05-22T18:58:21.157Z,42.26
2023-05-22T19:00:48.364Z,42.47
2023-05-22T19:03:15.163Z,42.71
2023-05-22T19:05:41.915Z,42.77
2023-05-22T19:08:08.611Z,42.88
2023-05-22T19:10:35.389Z,42.91
2023-05-22T19:13:02.058Z,42.90
2023-05-22T19:15:28.754Z,42.92
2023-05-22T19:17:55.412Z,43.00
2023-05-22T19:20:23.777Z,43.17
2023-05-22T19:22:51.497Z,43.39
2023-05-22T19:25:18.360Z,43.56
2023-05-22T19:27:45.918Z,43.79
2023-05-22T19:30:15.323Z,44.10
2023-05-22T19:32:43.931Z,44.38
2023-05-22T19:35:11.434Z,44.56
2023-05-22T19:37:38.167Z,44.77
2023-05-22T19:40:06.116Z,44.99
2023-05-22T19:42:33.018Z,45.26
2023-05-22T19:44:59.703Z,45.56
2023-05-22T19:47:27.206Z,45.79
2023-05-22T19:49:53.887Z,46.23
2023-05-22T19:52:20.704Z,46.53
2023-05-22T19:54:47.415Z,46.86
2023-05-22T19:57:15.311Z,47.28
2023-05-22T19:59:48.434Z,47.59
2023-05-22T20:02:15.516Z,47.80
2023-05-22T20:09:28.779Z,48.40
2023-05-22T20:11:55.429Z,48.52
2023-05-22T20:14:22.117Z,48.72
2023-05-22T20:16:48.927Z,48.98
2023-05-22T20:19:17.523Z,49.18
2023-05-22T20:21:44.479Z,49.55
2023-05-22T20:24:21.764Z,49.72
2023-05-22T20:26:52.587Z,49.88
2023-05-22T20:29:23.550Z,50.02
2023-05-22T20:36:39.571Z,50.23
2023-05-22T20:39:07.668Z,50.39
2023-05-22T20:41:34.408Z,50.60
2023-05-22T20:44:02.618Z,50.67
2023-05-22T20:46:29.408Z,50.72
2023-05-22T20:49:22.088Z,50.95
2023-05-22T20:51:50.102Z,51.29
2023-05-22T20:54:17.911Z,51.44
2023-05-22T20:56:44.785Z,51.63
2023-05-22T20:59:11.556Z,51.78
2023-05-22T21:01:38.377Z,51.94
2023-05-22T21:04:05.189Z,52.16
2023-05-22T21:06:31.877Z,52.35
2023-05-22T21:09:01.694Z,52.48
2023-05-22T21:11:28.593Z,52.43
2023-05-22T21:13:55.428Z,52.43
2023-05-22T21:16:22.082Z,52.51
2023-05-22T21:18:48.804Z,52.72
2023-05-22T21:21:20.113Z,52.74
2023-05-22T21:23:48.101Z,52.87
2023-05-22T21:26:15.560Z,52.98
2023-05-22T21:28:43.107Z,53.03
2023-05-22T21:31:09.917Z,53.20
2023-05-22T21:33:36.606Z,53.31
2023-05-22T21:36:03.398Z,53.45
2023-05-22T21:38:30.004Z,53.63
2023-05-22T21:40:56.616Z,53.78
2023-05-22T21:43:23.617Z,53.88
2023-05-22T21:45:50.348Z,54.00
2023-05-22T21:48:17.013Z,54.10
2023-05-22T21:50:43.783Z,54.18
2023-05-22T21:53:10.418Z,54.28
2023-05-22T21:55:37.094Z,54.35
2023-05-22T21:58:03.774Z,54.49
2023-05-22T22:00:30.469Z,54.66
2023-05-22T22:02:57.357Z,54.90
2023-05-22T22:05:25.968Z,55.09
2023-05-22T22:07:52.648Z,55.17
2023-05-22T22:10:19.476Z,55.32
2023-05-22T22:12:46.346Z,55.46
2023-05-22T22:15:13.058Z,55.53
2023-05-22T22:17:40.760Z,55.66
2023-05-22T22:20:09.425Z,55.75
2023-05-22T22:22:36.070Z,56.00
2023-05-22T22:25:03.153Z,56.13
2023-05-22T22:27:29.801Z,56.45
2023-05-22T22:29:56.407Z,56.61
2023-05-22T22:32:23.059Z,56.74
2023-05-22T22:34:53.697Z,56.92
2023-05-22T22:37:21.652Z,57.10
2023-05-22T22:39:48.285Z,57.36
2023-05-22T22:42:14.993Z,57.56
2023-05-22T22:44:41.750Z,57.80
2023-05-22T22:47:09.191Z,57.84
2023-05-22T22:49:37.403Z,57.88
2023-05-22T22:52:04.742Z,58.24
2023-05-22T22:54:31.455Z,58.46
2023-05-22T22:56:58.061Z,58.57
2023-05-22T22:59:24.678Z,58.64
2023-05-22T23:01:51.457Z,58.77
2023-05-22T23:04:18.363Z,58.93
2023-05-22T23:06:46.234Z,59.07
2023-05-22T23:09:12.976Z,59.20
2023-05-22T23:11:39.539Z,59.30
2023-05-22T23:14:08.481Z,59.31
2023-05-22T23:16:36.475Z,59.50
2023-05-22T23:19:07.442Z,59.67
2023-05-22T23:21:35.330Z,59.83
2023-05-22T23:24:06.825Z,59.88
2023-05-22T23:26:34.245Z,59.91
2023-05-22T23:29:01.744Z,60.09
2023-05-22T23:31:30.803Z,60.17
2023-05-22T23:33:57.796Z,60.19
2023-05-22T23:36:25.303Z,60.21
2023-05-22T23:38:52.059Z,60.25
2023-05-22T23:41:18.756Z,60.25
2023-05-22T23:43:46.258Z,60.23
2023-05-22T23:46:14.220Z,60.28
2023-05-22T23:48:42.254Z,60.32
2023-05-22T23:51:09.567Z,60.46
2023-05-22T23:53:36.840Z,60.48
2023-05-22T23:56:06.563Z,60.58
2023-05-22T23:58:33.270Z,60.71
